Terminal Aerodrome Forecast
Issued by NWS Wilmington, OH

Current Version | Previous Version | Text Only | Print | Product List | Glossary Off
Versions: 1 2 3 4 5 6 7 8 9 10 11 12 13 14 15 16 17 18 19 20 21 22 23 24 25 26 27 28 29 30 31

000
FTUS41 KILN 040300 AAB
TAFCVG
TAF AMD
KCVG 040315Z 0403/0506 26006KT P6SM -RA OVC008
     FM040800 32008KT 4SM -RA BR OVC008
     FM041500 33007KT 2SM BR OVC006
     FM041800 33012KT 1 1/2SM -SN BR OVC004
     FM050000 36012KT 1 1/2SM -SN BR OVC004=

USA.gov is the U.S. government's official web portal to all federal, state and local government web resources and services.